Time;durP1;ratioP1;P1;durP2;ratioP2;P2;SDS_P1;SDS_P2;PMS_P1;PMS_P2;Temp;Humidity;BMP_temperature;BMP_pressure;BME280_temperature;BME280_humidity;BME280_pressure;Samples;Min_cycle;Max_cycle;Signal;HPM_P1;HPM_P2
2021/12/24 00:04:05;;;;;;;13.33;10.37;;;;;;;8.55;72.24;99350.06;10329110;28;20241;-82
2021/12/24 00:09:08;;;;;;;19.73;13.67;;;;;;;8.86;69.58;99340.59;10291373;28;20365;-82
2021/12/24 00:14:10;;;;;;;21.00;15.20;;;;;;;8.72;71.68;99343.59;10318361;28;20669;-82
2021/12/24 00:19:34;;;;;;;27.10;17.30;;;;;;;8.85;71.09;99334.19;10344547;28;20661;-83
2021/12/24 00:35:30;;;;;;;24.67;15.27;;;;;;;9.06;71.56;99327.84;10360923;28;20205;-82
2021/12/24 00:40:43;;;;;;;22.53;14.00;;;;;;;8.98;69.37;99327.53;10338494;28;20209;-81
2021/12/24 00:45:49;;;;;;;21.27;12.93;;;;;;;8.76;71.56;99325.00;10319548;28;20209;-84
2021/12/24 00:56:00;;;;;;;23.97;14.50;;;;;;;9.34;70.34;99323.38;10335303;28;20515;-82
2021/12/24 01:01:05;;;;;;;21.13;14.43;;;;;;;9.00;71.72;99321.59;10296639;28;20265;-83
2021/12/24 01:06:09;;;;;;;26.77;15.77;;;;;;;9.20;71.91;99317.19;10295160;28;20484;-83
2021/12/24 01:11:13;;;;;;;25.37;15.77;;;;;;;9.83;68.73;99320.97;10314177;28;20222;-83
2021/12/24 01:16:29;;;;;;;20.20;13.97;;;;;;;9.06;71.10;99316.63;10349768;28;20543;-84
2021/12/24 01:27:23;;;;;;;19.47;13.03;;;;;;;9.30;70.80;99306.44;10313418;28;20273;-83
2021/12/24 01:42:52;;;;;;;16.23;11.23;;;;;;;9.42;70.11;99286.09;10297502;28;20611;-83
2021/12/24 01:47:57;;;;;;;15.40;10.27;;;;;;;9.09;71.23;99293.53;10287683;28;20214;-86
2021/12/24 01:53:05;;;;;;;13.97;10.37;;;;;;;9.53;69.40;99292.13;10335080;28;20561;-84
2021/12/24 01:58:09;;;;;;;12.80;9.00;;;;;;;9.55;69.87;99289.81;10344191;28;20210;-85
2021/12/24 02:03:13;;;;;;;13.80;9.93;;;;;;;8.90;72.32;99280.78;10335485;28;20348;-83
2021/12/24 02:08:16;;;;;;;16.27;10.57;;;;;;;9.50;70.56;99276.78;10307358;28;20242;-84
2021/12/24 02:13:22;;;;;;;15.77;11.27;;;;;;;9.26;72.24;99277.44;10332690;28;20207;-85
2021/12/24 02:29:15;;;;;;;15.87;11.63;;;;;;;9.21;71.08;99263.63;10316546;28;20325;-83
2021/12/24 02:34:17;;;;;;;19.27;11.90;;;;;;;8.84;73.70;99265.31;10327848;28;20268;-84
2021/12/24 02:39:19;;;;;;;18.63;13.47;;;;;;;9.31;72.43;99262.44;10312420;28;20226;-84
2021/12/24 02:44:22;;;;;;;19.53;13.90;;;;;;;9.43;70.33;99258.88;10330925;28;20260;-85
2021/12/24 02:55:04;;;;;;;23.27;16.73;;;;;;;9.91;69.02;99233.09;10271443;28;20554;-84
2021/12/24 03:00:19;;;;;;;22.50;16.73;;;;;;;9.54;71.73;99237.69;10280739;28;20218;-84
2021/12/24 03:05:24;;;;;;;26.70;17.77;;;;;;;9.75;70.94;99237.69;10332886;28;20586;-84
2021/12/24 03:10:26;;;;;;;29.60;19.17;;;;;;;9.23;72.98;99227.69;10353624;28;20226;-86
2021/12/24 03:15:29;;;;;;;28.47;19.10;;;;;;;9.76;71.70;99216.91;10265060;28;20544;-84
2021/12/24 03:20:34;;;;;;;33.40;19.43;;;;;;;9.67;72.43;99229.03;10297093;28;20206;-85
2021/12/24 03:25:37;;;;;;;28.10;19.07;;;;;;;10.18;69.15;99228.88;10304663;28;20256;-86
2021/12/24 03:30:40;;;;;;;25.77;17.60;;;;;;;9.59;71.33;99229.06;10305628;28;20229;-84
2021/12/24 03:35:42;;;;;;;22.20;15.67;;;;;;;9.76;70.50;99214.09;10327831;28;20245;-85
2021/12/24 03:40:45;;;;;;;20.60;15.67;;;;;;;9.23;73.00;99221.25;10281764;28;20202;-85
2021/12/24 03:51:05;;;;;;;23.10;17.10;;;;;;;9.48;71.67;99217.44;10300476;28;20696;-84
2021/12/24 03:56:08;;;;;;;23.40;17.30;;;;;;;9.81;71.06;99223.13;10336233;28;20261;-83
2021/12/24 04:01:12;;;;;;;26.67;18.40;;;;;;;9.43;72.71;99231.66;10319858;28;20226;-81
2021/12/24 04:06:35;;;;;;;29.80;20.23;;;;;;;10.01;70.60;99227.03;10311887;28;20670;-81
2021/12/24 04:11:56;;;;;;;32.90;21.87;;;;;;;9.45;72.28;99229.31;10289243;28;20250;-82
2021/12/24 04:16:58;;;;;;;34.07;22.20;;;;;;;9.45;71.85;99234.94;10280333;28;20206;-81
2021/12/24 04:27:27;;;;;;;43.73;26.67;;;;;;;9.66;71.35;99235.78;10361785;28;20272;-85
2021/12/24 05:04:50;;;;;;;42.97;27.10;;;;;;;10.24;68.39;99228.28;10331745;28;20563;-84
2021/12/24 05:09:57;;;;;;;42.20;27.53;;;;;;;10.06;69.27;99243.69;10329075;28;20315;-80
2021/12/24 05:15:07;;;;;;;43.67;29.00;;;;;;;9.63;70.78;99244.06;10317641;28;20630;-81
2021/12/24 05:25:58;;;;;;;50.90;28.27;;;;;;;10.15;69.32;99247.22;10298424;28;20484;-85
2021/12/24 05:31:01;;;;;;;50.07;30.10;;;;;;;10.28;68.87;99245.25;10314433;28;20280;-84
2021/12/24 05:36:04;;;;;;;44.43;27.47;;;;;;;9.65;71.81;99239.75;10337685;28;20218;-83
2021/12/24 05:41:10;;;;;;;43.47;28.23;;;;;;;10.53;67.50;99235.72;10334587;28;20257;-84
2021/12/24 05:46:12;;;;;;;41.90;28.20;;;;;;;9.66;70.58;99238.59;10295996;28;20261;-84
2021/12/24 05:51:35;;;;;;;44.40;28.70;;;;;;;10.87;66.78;99245.75;10295584;28;20234;-83
2021/12/24 05:56:56;;;;;;;44.77;28.40;;;;;;;10.35;68.17;99251.16;10315911;28;20213;-84
2021/12/24 06:01:58;;;;;;;49.50;28.53;;;;;;;10.64;67.77;99252.97;10348292;28;20230;-83
2021/12/24 06:07:00;;;;;;;45.23;29.97;;;;;;;10.66;67.21;99250.63;10295567;28;20206;-85
2021/12/24 06:12:03;;;;;;;49.53;31.80;;;;;;;10.38;67.60;99261.66;10336627;28;20566;-83
2021/12/24 06:17:10;;;;;;;46.03;31.17;;;;;;;10.29;68.17;99270.19;10334182;28;20602;-84
2021/12/24 06:22:12;;;;;;;52.10;30.73;;;;;;;10.56;66.70;99267.91;10343557;28;20264;-82
2021/12/24 06:27:14;;;;;;;46.37;29.93;;;;;;;10.32;68.10;99258.28;10348249;28;20310;-82
2021/12/24 06:32:17;;;;;;;49.33;30.57;;;;;;;10.90;65.50;99273.13;10334597;28;20261;-85
2021/12/24 06:37:19;;;;;;;53.40;32.43;;;;;;;10.36;67.28;99275.22;10332466;28;20257;-81
2021/12/24 06:42:22;;;;;;;46.73;31.30;;;;;;;10.52;66.55;99272.56;10317047;28;20268;-83
2021/12/24 06:47:24;;;;;;;45.97;31.73;;;;;;;10.33;67.38;99271.13;10329790;28;20233;-82
2021/12/24 06:52:26;;;;;;;55.97;30.10;;;;;;;9.92;68.74;99279.63;10341496;28;20751;-83
2021/12/24 06:57:28;;;;;;;48.57;31.13;;;;;;;10.56;66.63;99273.53;10320196;28;20206;-86
2021/12/24 07:02:33;;;;;;;45.37;29.00;;;;;;;10.39;66.41;99285.75;10313024;28;20575;-85
2021/12/24 07:07:36;;;;;;;45.07;27.37;;;;;;;10.20;66.84;99283.50;10327785;28;20224;-83
2021/12/24 07:12:38;;;;;;;37.13;24.47;;;;;;;9.94;68.06;99280.09;10336254;28;20237;-85
2021/12/24 07:17:40;;;;;;;43.00;25.97;;;;;;;9.61;69.39;99280.84;10322303;28;20269;-86
2021/12/24 07:22:43;;;;;;;41.13;26.53;;;;;;;10.14;67.45;99272.81;10337384;28;20226;-85
2021/12/24 07:27:45;;;;;;;37.40;25.70;;;;;;;10.25;67.78;99285.25;10342828;28;20277;-85
2021/12/24 07:32:48;;;;;;;41.33;26.10;;;;;;;9.94;68.70;99285.72;10339750;28;20257;-83
2021/12/24 07:37:51;;;;;;;40.23;24.53;;;;;;;10.28;66.22;99296.63;10307133;28;20210;-83
2021/12/24 07:42:55;;;;;;;47.10;27.47;;;;;;;10.07;68.52;99307.88;10305421;28;20207;-86
2021/12/24 07:53:28;;;;;;;39.60;24.77;;;;;;;10.33;67.25;99310.44;10294946;28;20733;-81
2021/12/24 07:58:31;;;;;;;40.60;23.93;;;;;;;10.52;65.63;99306.28;10320539;28;20546;-83
2021/12/24 08:03:33;;;;;;;37.93;25.13;;;;;;;10.48;66.56;99308.16;10318986;28;20806;-87
2021/12/24 08:08:36;;;;;;;41.50;26.73;;;;;;;10.38;66.35;99303.78;10316642;28;20241;-84
2021/12/24 08:13:38;;;;;;;42.20;25.47;;;;;;;10.25;66.99;99302.91;10318694;28;20579;-83
2021/12/24 08:18:43;;;;;;;38.43;25.63;;;;;;;10.67;65.43;99298.03;10310056;28;20206;-82
2021/12/24 08:23:47;;;;;;;41.03;26.67;;;;;;;10.27;67.18;99294.16;10341548;28;20493;-85
2021/12/24 08:28:49;;;;;;;42.33;26.47;;;;;;;10.76;64.91;99287.50;10304645;28;20213;-90
2021/12/24 08:33:52;;;;;;;44.97;25.23;;;;;;;10.20;66.51;99280.69;10324987;28;20249;-88
2021/12/24 08:38:55;;;;;;;39.30;24.63;;;;;;;10.71;65.70;99281.31;10292208;28;20515;-85
2021/12/24 08:43:57;;;;;;;39.17;23.80;;;;;;;10.50;65.46;99283.31;10320869;28;20256;-83
2021/12/24 08:48:59;;;;;;;36.90;23.03;;;;;;;9.80;67.95;99276.75;10322834;28;20421;-85
2021/12/24 08:54:02;;;;;;;37.67;21.07;;;;;;;10.13;66.05;99280.41;10329007;28;20257;-81
2021/12/24 08:59:05;;;;;;;38.80;22.03;;;;;;;10.87;63.98;99271.03;10317529;28;20230;-87
2021/12/24 09:04:07;;;;;;;35.33;19.87;;;;;;;10.45;66.05;99273.16;10327333;28;20288;-81
2021/12/24 09:09:11;;;;;;;34.47;20.77;;;;;;;10.34;65.94;99272.78;10337040;28;20205;-81
2021/12/24 09:14:18;;;;;;;36.37;20.50;;;;;;;10.75;63.84;99273.81;10318502;28;20981;-86
2021/12/24 09:19:25;;;;;;;34.33;19.53;;;;;;;10.35;65.39;99277.25;10324373;28;20249;-84
2021/12/24 09:24:30;;;;;;;30.40;18.83;;;;;;;10.56;64.63;99263.13;10313996;28;20276;-83
2021/12/24 09:29:32;;;;;;;27.63;18.50;;;;;;;10.11;66.79;99263.09;10319690;28;20276;-86
2021/12/24 09:34:38;;;;;;;27.70;17.33;;;;;;;10.55;64.93;99255.03;10331264;28;20218;-82
2021/12/24 09:39:40;;;;;;;26.07;17.13;;;;;;;10.43;64.94;99253.03;10325688;28;20238;-81
2021/12/24 09:44:43;;;;;;;28.07;17.10;;;;;;;10.38;65.35;99251.25;10323162;28;20308;-88
2021/12/24 09:49:45;;;;;;;31.93;18.33;;;;;;;10.19;66.14;99258.56;10312088;28;20213;-86
2021/12/24 09:54:48;;;;;;;31.77;19.13;;;;;;;10.19;66.02;99253.78;10326119;28;20273;-82
2021/12/24 09:59:50;;;;;;;30.40;19.17;;;;;;;10.59;64.81;99253.19;10300719;28;20242;-82
2021/12/24 10:04:52;;;;;;;30.37;18.67;;;;;;;10.20;65.79;99247.00;10332827;28;20323;-87
2021/12/24 10:10:05;;;;;;;29.37;19.10;;;;;;;10.32;65.42;99247.03;10339251;28;20300;-82
2021/12/24 10:15:08;;;;;;;28.33;18.17;;;;;;;11.21;62.82;99247.25;10313412;28;20269;-82
2021/12/24 10:20:13;;;;;;;28.80;18.03;;;;;;;10.81;63.28;99251.94;10326326;28;20233;-85
2021/12/24 10:25:16;;;;;;;30.27;17.43;;;;;;;10.54;64.43;99251.41;10290972;28;20531;-83
2021/12/24 10:30:26;;;;;;;29.00;17.03;;;;;;;10.33;65.56;99251.50;10292014;28;20249;-83
2021/12/24 10:35:30;;;;;;;29.80;16.67;;;;;;;11.15;62.27;99255.09;10327978;28;20250;-82
2021/12/24 10:40:32;;;;;;;29.93;17.03;;;;;;;10.23;64.70;99253.91;10356031;28;20241;-86
2021/12/24 10:45:35;;;;;;;31.90;17.03;;;;;;;10.56;64.63;99262.28;10329471;28;20749;-86
2021/12/24 10:50:48;;;;;;;39.77;17.00;;;;;;;9.59;67.66;99263.56;10343495;28;20603;-85
2021/12/24 10:55:53;;;;;;;30.97;17.47;;;;;;;9.99;66.27;99249.00;10301665;28;20266;-84
2021/12/24 11:00:57;;;;;;;23.70;14.80;;;;;;;9.61;68.03;99254.78;10324170;28;20236;-82
2021/12/24 11:06:06;;;;;;;29.37;15.47;;;;;;;10.38;64.70;99256.88;10294871;28;20264;-82
2021/12/24 11:11:14;;;;;;;28.37;15.97;;;;;;;10.06;65.97;99257.72;10299819;28;20312;-81
2021/12/24 11:16:18;;;;;;;27.97;14.90;;;;;;;10.00;66.95;99256.28;10292434;28;20209;-82
2021/12/24 11:21:23;;;;;;;33.17;15.27;;;;;;;10.36;65.43;99262.00;10277671;28;20532;-85
2021/12/24 11:26:28;;;;;;;21.90;13.80;;;;;;;10.60;64.91;99257.63;10290755;28;20623;-85
2021/12/24 11:31:32;;;;;;;27.40;14.07;;;;;;;10.76;63.53;99256.59;10304158;28;20246;-88
2021/12/24 11:36:36;;;;;;;23.40;13.23;;;;;;;10.16;64.68;99256.44;10313054;28;20295;-87
2021/12/24 11:41:39;;;;;;;23.13;12.00;;;;;;;10.62;64.27;99252.47;10289317;28;20209;-86
2021/12/24 11:46:44;;;;;;;24.60;13.20;;;;;;;9.98;66.06;99259.41;10330844;28;20288;-81
2021/12/24 11:51:46;;;;;;;25.03;14.87;;;;;;;10.76;63.33;99255.78;10314105;28;20324;-82
2021/12/24 11:56:52;;;;;;;27.50;14.70;;;;;;;10.90;63.50;99247.00;10297269;28;20587;-85
2021/12/24 12:01:55;;;;;;;24.90;14.23;;;;;;;10.33;64.84;99247.84;10295745;28;20257;-84
2021/12/24 12:07:11;;;;;;;22.20;13.80;;;;;;;10.25;64.73;99243.97;10287429;28;20226;-82
2021/12/24 12:12:16;;;;;;;22.53;13.77;;;;;;;10.78;63.25;99230.97;10318139;28;20295;-86
2021/12/24 12:17:23;;;;;;;26.10;14.07;;;;;;;10.90;63.51;99228.16;10304782;28;20308;-82
2021/12/24 12:27:57;;;;;;;21.57;13.43;;;;;;;10.46;64.88;99234.66;10312935;28;20284;-84
2021/12/24 12:33:07;;;;;;;19.07;13.17;;;;;;;10.96;63.14;99223.97;10292469;28;20309;-82
2021/12/24 12:38:28;;;;;;;19.23;11.93;;;;;;;10.58;64.05;99226.25;10300896;28;20560;-86
2021/12/24 12:43:30;;;;;;;24.57;13.17;;;;;;;10.16;65.58;99226.41;10303390;28;20421;-85
2021/12/24 12:48:44;;;;;;;20.83;12.43;;;;;;;10.54;64.09;99226.13;10329093;28;20279;-87
2021/12/24 12:53:48;;;;;;;24.47;13.67;;;;;;;11.23;62.71;99219.59;10291244;28;20237;-85
2021/12/24 12:58:57;;;;;;;22.93;14.10;;;;;;;10.38;66.10;99217.56;10328147;28;20531;-85
2021/12/24 13:04:00;;;;;;;24.53;15.77;;;;;;;10.71;64.55;99211.09;10326549;28;20333;-86
2021/12/24 13:09:11;;;;;;;24.30;15.43;;;;;;;10.03;66.51;99219.09;10318833;28;20210;-85
2021/12/24 13:14:16;;;;;;;26.53;17.03;;;;;;;10.50;64.92;99218.75;10318531;28;20280;-82
2021/12/24 13:20:11;;;;;;;32.73;18.27;;;;;;;10.56;65.91;99214.56;10322868;28;20202;-84
2021/12/24 13:24:52;;;;;;;27.47;18.20;;;;;;;10.96;63.79;99220.34;10323422;28;20226;-87
2021/12/24 13:30:11;;;;;;;30.77;18.60;;;;;;;10.34;66.53;99222.25;10334482;28;20249;-87
2021/12/24 13:35:22;;;;;;;25.23;17.83;;;;;;;10.43;65.94;99222.97;10320465;28;20713;-85
2021/12/24 13:40:27;;;;;;;33.27;18.90;;;;;;;10.60;66.23;99212.69;10300645;28;20206;-86
2021/12/24 13:45:34;;;;;;;29.77;18.97;;;;;;;10.75;65.03;99209.19;10317666;28;20485;-89
2021/12/24 13:56:00;;;;;;;31.33;18.23;;;;;;;10.52;65.29;99213.59;10331518;28;20694;-89
2021/12/24 14:01:03;;;;;;;33.40;19.33;;;;;;;10.39;66.72;99213.59;10336608;28;20218;-84
2021/12/24 14:06:06;;;;;;;36.50;21.13;;;;;;;10.84;65.22;99221.16;10315510;28;20206;-87
2021/12/24 14:11:12;;;;;;;30.67;19.30;;;;;;;10.40;65.52;99212.41;10317731;28;20245;-82
2021/12/24 14:16:51;;;;;;;37.20;20.97;;;;;;;10.48;64.75;99221.09;10326982;28;20323;-87
2021/12/24 14:21:48;;;;;;;35.23;19.90;;;;;;;10.62;64.97;99210.31;10307744;28;20256;-87
2021/12/24 14:27:01;;;;;;;37.77;21.33;;;;;;;10.79;63.40;99225.00;10327333;28;20277;-82
2021/12/24 14:32:09;;;;;;;33.63;20.70;;;;;;;11.30;62.13;99224.63;10338878;28;20264;-83
2021/12/24 14:37:32;;;;;;;31.83;19.87;;;;;;;11.11;62.65;99228.06;10316469;28;20237;-88
2021/12/24 14:42:40;;;;;;;38.60;20.33;;;;;;;10.49;64.79;99240.38;10317941;28;20595;-85
2021/12/24 14:47:59;;;;;;;29.00;19.10;;;;;;;10.67;63.75;99232.59;10301041;28;20260;-86
2021/12/24 14:53:05;;;;;;;29.17;19.30;;;;;;;10.83;62.74;99225.13;10325176;28;20296;-83
2021/12/24 14:58:08;;;;;;;31.10;18.97;;;;;;;10.55;64.68;99232.56;10302207;28;20229;-82
2021/12/24 15:03:14;;;;;;;29.70;18.60;;;;;;;10.75;63.21;99231.66;10321351;28;20253;-82
2021/12/24 15:08:23;;;;;;;36.90;19.60;;;;;;;10.87;63.09;99223.28;10310005;28;20284;-84
2021/12/24 15:13:27;;;;;;;28.17;17.73;;;;;;;10.42;65.09;99232.53;10330628;28;20241;-81
2021/12/24 15:18:29;;;;;;;30.30;19.40;;;;;;;10.67;63.19;99235.41;10328655;28;20595;-82
2021/12/24 15:23:32;;;;;;;24.70;17.20;;;;;;;10.62;63.82;99241.22;10321876;28;20241;-82
2021/12/24 15:28:39;;;;;;;30.80;17.93;;;;;;;10.97;62.73;99224.78;10325917;28;20622;-83
2021/12/24 15:33:41;;;;;;;30.67;18.80;;;;;;;10.66;62.95;99225.34;10320786;28;20265;-82
2021/12/24 15:38:44;;;;;;;35.37;19.67;;;;;;;10.57;64.01;99231.06;10313137;28;20209;-83
2021/12/24 15:43:51;;;;;;;29.03;17.17;;;;;;;10.67;63.06;99229.81;10317809;28;20206;-82
2021/12/24 15:48:53;;;;;;;26.37;17.50;;;;;;;10.08;65.31;99241.34;10325613;28;20269;-84
2021/12/24 15:53:55;;;;;;;32.73;18.37;;;;;;;10.75;62.84;99232.50;10301330;28;20382;-83
2021/12/24 15:58:57;;;;;;;28.63;18.27;;;;;;;10.98;62.44;99243.28;10313334;28;20229;-83
2021/12/24 16:04:00;;;;;;;31.73;19.77;;;;;;;10.35;63.61;99243.53;10326301;28;20583;-83
2021/12/24 16:09:02;;;;;;;28.93;19.30;;;;;;;10.71;63.69;99248.44;10309279;28;20205;-82
2021/12/24 16:14:05;;;;;;;29.97;20.10;;;;;;;10.48;63.57;99250.00;10360366;28;20261;-82
2021/12/24 16:19:07;;;;;;;32.27;19.90;;;;;;;11.15;61.62;99255.09;10355114;28;20221;-86
2021/12/24 16:24:10;;;;;;;38.43;20.53;;;;;;;11.27;61.46;99253.44;10342213;28;20226;-83
2021/12/24 16:29:18;;;;;;;37.83;20.10;;;;;;;10.81;63.39;99258.38;10301421;28;20229;-86
2021/12/24 16:34:20;;;;;;;37.47;21.83;;;;;;;10.67;63.18;99257.91;10319043;28;20257;-87
2021/12/24 16:39:23;;;;;;;32.10;20.30;;;;;;;10.89;62.42;99260.25;10321035;28;20233;-81
2021/12/24 16:44:28;;;;;;;36.20;23.17;;;;;;;10.08;65.51;99269.41;10322332;28;20543;-87
2021/12/24 16:49:30;;;;;;;37.73;22.80;;;;;;;10.35;65.13;99263.19;10323691;28;20292;-87
2021/12/24 16:54:33;;;;;;;39.07;23.07;;;;;;;9.99;66.32;99251.81;10325724;28;21051;-83
2021/12/24 16:59:40;;;;;;;41.00;23.07;;;;;;;10.47;65.12;99247.53;10324449;28;20218;-83
2021/12/24 17:04:42;;;;;;;39.30;23.23;;;;;;;10.53;64.79;99251.75;10305312;28;20288;-82
2021/12/24 17:09:45;;;;;;;37.33;22.90;;;;;;;10.47;63.77;99250.34;10317209;28;20214;-86
2021/12/24 17:14:48;;;;;;;40.70;23.70;;;;;;;10.55;64.25;99260.66;10324241;28;20234;-84
2021/12/24 17:19:51;;;;;;;37.73;24.40;;;;;;;10.96;62.78;99254.88;10333740;28;20688;-84
2021/12/24 17:24:55;;;;;;;42.80;25.10;;;;;;;10.08;65.28;99258.19;10311973;28;20233;-82
2021/12/24 17:29:58;;;;;;;43.30;24.13;;;;;;;10.48;64.29;99263.22;10335846;28;20264;-87
2021/12/24 17:35:00;;;;;;;39.53;23.33;;;;;;;10.84;62.88;99266.13;10306882;28;20523;-86
2021/12/24 17:40:04;;;;;;;42.83;23.97;;;;;;;10.38;64.85;99268.09;10329030;28;20268;-86
2021/12/24 17:45:08;;;;;;;35.87;23.40;;;;;;;10.11;64.78;99265.91;10327681;28;20202;-84
2021/12/24 17:50:12;;;;;;;46.60;23.93;;;;;;;10.11;65.80;99257.47;10320720;28;20245;-84
2021/12/24 17:55:14;;;;;;;48.37;24.73;;;;;;;10.87;63.18;99268.22;10331794;28;20728;-83
2021/12/24 18:00:17;;;;;;;45.07;25.80;;;;;;;10.33;65.05;99285.19;10359848;28;20240;-82
2021/12/24 18:05:21;;;;;;;19.53;10.97;;;;;;;10.56;62.65;99293.19;10308893;28;20268;-83
2021/12/24 18:10:25;;;;;;;9.13;7.27;;;;;;;9.60;63.83;99304.44;10329867;28;20264;-83
2021/12/24 18:15:29;;;;;;;9.83;5.70;;;;;;;9.23;65.01;99305.31;10331546;28;20295;-83
2021/12/24 18:20:32;;;;;;;9.23;6.10;;;;;;;9.42;63.96;99324.53;10327667;28;20233;-83
2021/12/24 18:25:34;;;;;;;4.87;4.43;;;;;;;8.83;64.32;99324.47;10323111;28;20331;-81
2021/12/24 18:30:37;;;;;;;6.13;4.97;;;;;;;9.48;62.75;99334.34;10308557;28;20657;-83
2021/12/24 18:35:39;;;;;;;5.20;4.70;;;;;;;9.79;61.78;99323.63;10331296;28;20265;-85
2021/12/24 18:40:48;;;;;;;5.37;4.87;;;;;;;9.70;62.12;99334.09;10329230;28;20225;-81
2021/12/24 18:45:50;;;;;;;4.90;4.40;;;;;;;9.67;61.41;99341.22;10330169;28;20206;-82
2021/12/24 18:50:54;;;;;;;5.30;4.80;;;;;;;9.37;61.52;99351.56;10328326;28;20268;-82
2021/12/24 18:55:57;;;;;;;4.57;4.17;;;;;;;8.96;61.63;99357.84;10330120;28;20308;-86
2021/12/24 19:00:59;;;;;;;5.97;5.40;;;;;;;9.35;60.26;99365.09;10325124;28;20229;-85
2021/12/24 19:06:02;;;;;;;6.67;6.00;;;;;;;9.27;60.04;99373.56;10325188;28;20221;-85
2021/12/24 19:11:04;;;;;;;7.40;6.67;;;;;;;8.97;60.66;99381.09;10344645;28;20241;-83
2021/12/24 19:16:07;;;;;;;6.37;5.10;;;;;;;9.11;59.97;99373.28;10326471;28;20249;-84
2021/12/24 19:21:09;;;;;;;4.43;4.03;;;;;;;8.97;59.25;99381.09;10310681;28;20278;-82
2021/12/24 19:26:12;;;;;;;3.60;2.83;;;;;;;8.87;59.35;99393.50;10323399;28;20230;-84
2021/12/24 19:31:14;;;;;;;4.43;3.73;;;;;;;8.84;60.26;99385.75;10323020;28;20210;-81
2021/12/24 19:36:17;;;;;;;3.50;3.20;;;;;;;9.20;58.28;99390.06;10293219;28;20293;-84
2021/12/24 19:41:19;;;;;;;6.27;5.37;;;;;;;9.09;58.81;99388.78;10336907;28;20273;-81
2021/12/24 19:46:21;;;;;;;8.07;5.97;;;;;;;9.26;57.47;99400.78;10328089;28;20493;-81
2021/12/24 19:51:24;;;;;;;9.60;7.40;;;;;;;8.94;59.66;99410.59;10325855;28;20260;-84
2021/12/24 19:56:26;;;;;;;10.73;7.10;;;;;;;9.13;58.96;99396.19;10323830;28;20288;-80
2021/12/24 20:01:28;;;;;;;8.93;7.13;;;;;;;9.06;59.37;99395.09;10317373;28;20277;-81
2021/12/24 20:06:30;;;;;;;10.17;7.43;;;;;;;9.09;59.26;99400.00;10329623;28;20222;-81
2021/12/24 20:11:33;;;;;;;12.67;9.00;;;;;;;8.98;59.21;99405.97;10320822;28;20213;-80
2021/12/24 20:16:35;;;;;;;13.43;9.00;;;;;;;8.50;60.75;99417.44;10327743;28;20265;-83
2021/12/24 20:21:38;;;;;;;10.40;8.97;;;;;;;8.56;60.61;99415.28;10326952;28;20260;-83
2021/12/24 20:26:41;;;;;;;6.97;6.23;;;;;;;8.83;59.80;99408.47;10308886;28;20491;-82
2021/12/24 20:31:43;;;;;;;7.77;6.33;;;;;;;8.58;60.87;99412.97;10319453;28;20558;-83
2021/12/24 20:36:46;;;;;;;3.93;3.53;;;;;;;7.42;62.93;99421.03;10325096;28;20249;-86
2021/12/24 20:41:50;;;;;;;5.27;3.80;;;;;;;8.26;60.67;99415.13;10312039;28;20599;-82
2021/12/24 20:46:52;;;;;;;3.30;2.50;;;;;;;7.69;61.85;99411.59;10331073;28;20268;-80
2021/12/24 20:51:55;;;;;;;4.13;3.33;;;;;;;7.89;61.40;99427.72;10332734;28;20209;-79
2021/12/24 20:56:58;;;;;;;5.50;4.17;;;;;;;8.20;59.68;99430.41;10329909;28;20250;-83
2021/12/24 21:02:00;;;;;;;5.47;4.60;;;;;;;8.07;60.92;99419.38;10332159;28;20827;-82
2021/12/24 21:07:03;;;;;;;5.70;4.83;;;;;;;7.97;60.29;99414.94;10313466;28;20229;-87
2021/12/24 21:12:06;;;;;;;6.40;5.33;;;;;;;7.47;63.09;99429.28;10302202;28;20261;-82
2021/12/24 21:17:10;;;;;;;6.63;5.23;;;;;;;7.71;61.81;99442.03;10289625;28;20250;-81
2021/12/24 21:22:14;;;;;;;6.70;5.87;;;;;;;7.81;61.13;99434.16;10317840;28;20265;-81
2021/12/24 21:27:17;;;;;;;6.30;5.53;;;;;;;7.56;60.84;99427.34;10300652;28;20607;-81
2021/12/24 21:32:19;;;;;;;6.23;4.97;;;;;;;7.61;61.38;99422.75;10307641;28;20242;-81
2021/12/24 21:37:21;;;;;;;5.40;4.60;;;;;;;7.86;60.20;99431.22;10297124;28;20307;-81
2021/12/24 21:42:23;;;;;;;7.07;5.47;;;;;;;7.72;60.63;99418.50;10312169;28;20618;-83
2021/12/24 21:47:37;;;;;;;7.30;5.00;;;;;;;7.67;61.31;99410.25;10313204;28;20258;-83
2021/12/24 21:52:40;;;;;;;5.57;5.00;;;;;;;7.92;60.14;99420.66;10295622;28;20637;-80
2021/12/24 21:57:42;;;;;;;5.80;5.20;;;;;;;7.66;60.83;99426.22;10310482;28;20636;-83
2021/12/24 22:02:55;;;;;;;5.10;4.30;;;;;;;6.78;61.83;99428.91;10301620;28;20614;-82
2021/12/24 22:13:19;;;;;;;3.23;2.93;;;;;;;7.39;59.45;99427.28;10304109;28;20332;-83
2021/12/24 22:18:22;;;;;;;5.17;3.87;;;;;;;7.69;59.02;99435.94;10303988;28;20254;-80
2021/12/24 22:23:24;;;;;;;2.90;2.60;;;;;;;7.56;59.55;99434.91;10306648;28;20261;-82
2021/12/24 22:28:27;;;;;;;3.53;3.23;;;;;;;7.20;60.56;99446.28;10304604;28;20950;-83
2021/12/24 22:33:29;;;;;;;2.97;2.63;;;;;;;7.35;60.09;99454.22;10291710;28;20250;-81
2021/12/24 22:38:31;;;;;;;7.93;6.33;;;;;;;7.64;59.93;99458.44;10290759;28;20717;-83
2021/12/24 22:43:36;;;;;;;6.33;5.13;;;;;;;7.63;59.83;99468.00;10309226;28;21149;-82
2021/12/24 22:48:40;;;;;;;4.93;4.47;;;;;;;7.56;59.27;99466.47;10290626;28;20544;-83
2021/12/24 22:53:42;;;;;;;4.40;3.97;;;;;;;7.21;59.81;99464.69;10275136;28;20242;-83
2021/12/24 22:58:44;;;;;;;7.63;5.00;;;;;;;7.54;59.24;99457.59;10310556;28;20614;-84
2021/12/24 23:03:46;;;;;;;7.27;4.80;;;;;;;7.52;59.19;99459.03;10307876;28;20311;-81
2021/12/24 23:08:51;;;;;;;6.93;4.30;;;;;;;7.68;58.34;99448.25;10285444;28;20684;-81
2021/12/24 23:13:54;;;;;;;6.03;5.43;;;;;;;7.54;58.61;99451.16;10283698;28;20312;-81
2021/12/24 23:19:00;;;;;;;6.03;5.43;;;;;;;7.31;59.85;99458.81;10303131;28;20238;-81
2021/12/24 23:24:04;;;;;;;6.17;5.53;;;;;;;7.53;58.91;99455.09;10334191;28;20249;-81
2021/12/24 23:29:07;;;;;;;6.73;6.03;;;;;;;7.48;59.55;99469.25;10312766;28;20214;-82
2021/12/24 23:34:09;;;;;;;7.77;6.10;;;;;;;7.35;59.67;99461.78;10322577;28;20257;-82
2021/12/24 23:39:13;;;;;;;7.27;6.10;;;;;;;7.17;60.20;99472.03;10329520;28;20245;-85
2021/12/24 23:44:16;;;;;;;7.37;6.53;;;;;;;6.97;59.84;99470.59;10304014;28;20288;-82
2021/12/24 23:49:18;;;;;;;12.87;6.73;;;;;;;7.27;59.35;99463.38;10317446;28;20210;-82
2021/12/24 23:54:21;;;;;;;8.00;6.53;;;;;;;6.45;61.39;99486.97;10309522;28;20311;-83
2021/12/24 23:59:23;;;;;;;6.83;6.00;;;;;;;6.53;60.30;99477.00;10312384;28;20268;-83
